Campanya Meteocatpedra
Centenari de l'SMC: 100 anys mirant el cel

Dades de l'estació automàtica Tremp

?
?

Resum diari

22:30 TU
Dades diàries de l'estació meteorològica
Temperatura mitjana 15.1 °C
Temperatura màxima 24.5 °C 11:54 TU
Temperatura mínima 9.9 °C 5:34 TU
Humitat relativa mitjana 75%
Precipitació acumulada 7.3 mm
Ratxa màxima del vent (10 m) 30.2 km/h - 326º 16:24 TU
Irradiació solar global 13.0 MJ/m2

El tram horari està expressat en Temps Universal (TU). Cal sumar una hora en horari d'hivern i dues en horari d'estiu per passar a l'hora oficial.

Tremp

Metadades estació meteorològica
Municipi Tremp
Comarca Pallars Jussà
Altitud 473 m
Data alta 22.10.2012
Estat actual Operativa
Dades de període
Període
TU
TM
°C
TX
°C
TN
°C
HRM
%
PPT
mm
VVM (10 m)
km/h
DVM (10 m)
graus
VVX (10 m)
km/h
RS
W/m2
00:00 - 00:30 12.9 13.1 12.8 84 0.0 2.9 249 7.2 0
00:30 - 01:00 13.0 13.1 12.7 83 0.0 3.6 238 7.6 0
01:00 - 01:30 12.6 12.8 12.2 86 0.0 3.6 237 7.6 0
01:30 - 02:00 12.3 12.5 12.2 87 0.0 2.5 236 6.1 0
02:00 - 02:30 12.0 12.2 11.7 89 0.0 1.4 224 6.1 0
02:30 - 03:00 11.5 11.7 11.3 91 0.0 3.2 274 6.1 0
03:00 - 03:30 11.3 11.5 11.3 91 0.0 4.0 243 8.6 0
03:30 - 04:00 11.2 11.4 11.1 91 0.0 3.6 258 5.8 0
04:00 - 04:30 11.1 11.2 10.9 91 0.0 5.0 240 9.4 0
04:30 - 05:00 10.8 11.0 10.5 93 0.0 3.2 130 5.4 0
05:00 - 05:30 10.4 10.5 10.2 95 0.0 2.2 244 5.4 0
05:30 - 06:00 10.0 10.2 9.9 95 0.0 2.2 303 5.4 7
06:00 - 06:30 10.5 11.2 10.0 94 0.0 4.7 262 6.8 70
06:30 - 07:00 13.0 14.0 11.3 86 0.0 0.7 308 4.3 159
07:00 - 07:30 13.8 14.4 13.5 82 0.0 1.4 152 5.0 199
07:30 - 08:00 14.2 14.6 13.7 83 0.0 2.5 116 6.8 227
08:00 - 08:30 14.9 15.3 14.5 78 0.0 1.4 179 4.3 281
08:30 - 09:00 15.9 16.4 15.3 73 0.0 1.4 76 4.7 297
09:00 - 09:30 16.9 18.0 16.2 68 0.0 2.2 79 6.5 422
09:30 - 10:00 18.1 18.6 17.4 63 0.0 2.9 53 7.6 474
10:00 - 10:30 19.3 20.2 18.6 58 0.0 3.6 107 10.8 630
10:30 - 11:00 20.7 21.9 19.4 50 0.0 2.5 137 7.9 782
11:00 - 11:30 22.2 22.7 21.6 45 0.0 2.9 252 8.6 844
11:30 - 12:00 23.1 24.5 22.5 43 0.0 4.0 71 11.9 908
12:00 - 12:30 22.5 23.4 21.6 45 0.0 4.7 155 14.0 401
12:30 - 13:00 23.4 24.5 21.8 44 0.0 6.8 158 16.2 695
13:00 - 13:30 21.9 22.2 21.7 48 0.0 7.9 131 12.6 206
13:30 - 14:00 21.9 22.2 21.8 48 0.0 6.5 97 12.6 166
14:00 - 14:30 21.1 21.8 19.3 46 0.2 10.4 22 26.6 51
14:30 - 15:00 15.8 19.1 14.3 75 4.2 16.9 358 29.2 26
15:00 - 15:30 14.6 15.7 14.1 84 1.8 14.8 353 25.9 70
15:30 - 16:00 15.6 16.1 15.3 77 0.0 10.8 349 21.6 184
16:00 - 16:30 15.8 16.0 15.6 74 0.0 12.6 338 30.2 96
16:30 - 17:00 15.6 15.8 15.5 75 0.0 12.2 344 28.1 45
17:00 - 17:30 15.6 15.8 15.4 68 0.0 8.3 339 17.6 19
17:30 - 18:00 15.8 16.1 15.3 64 0.0 8.3 21 19.4 6
18:00 - 18:30 15.5 15.8 15.3 66 0.0 3.6 109 11.2 0
18:30 - 19:00 15.5 16.1 15.3 66 0.0 4.0 288 13.0 0
19:00 - 19:30 14.3 15.9 13.4 78 1.1 4.7 322 10.1 0
19:30 - 20:00 13.5 13.7 13.3 87 0.0 4.7 245 10.8 0
20:00 - 20:30 13.5 13.7 13.1 88 0.0 4.7 274 7.6 0
20:30 - 21:00 13.1 13.3 12.8 88 0.0 4.0 274 8.6 0
21:00 - 21:30 12.5 12.7 12.2 90 0.0 3.6 226 7.6 0
21:30 - 22:00 12.1 13.0 11.7 89 0.0 5.8 256 14.0 0
22:00 - 22:30 11.9 12.3 11.5 81 0.0 7.9 244 14.8 0
22:30 - 23:00 12.6 13.5 11.3 69 0.0 5.0 275 18.0 0

Les dades en taronja només han passat un control de qualitat automàtic. Resta pendent la seva validació definitiva.